createdAt,value
2018-06-05T00:00:22.309Z,6.50
2018-06-05T00:03:26.584Z,6.93
2018-06-05T00:06:30.835Z,6.00
2018-06-05T00:09:35.113Z,7.07
2018-06-05T00:12:39.420Z,5.83
2018-06-05T00:15:43.711Z,6.53
2018-06-05T00:18:48.061Z,6.73
2018-06-05T00:21:52.364Z,6.70
2018-06-05T00:24:56.621Z,6.97
2018-06-05T00:28:00.877Z,7.03
2018-06-05T00:31:05.117Z,7.80
2018-06-05T00:34:09.400Z,6.50
2018-06-05T00:37:13.686Z,7.57
2018-06-05T00:40:17.969Z,7.43
2018-06-05T00:43:22.237Z,7.13
2018-06-05T00:46:26.540Z,6.43
2018-06-05T00:49:30.863Z,7.50
2018-06-05T00:52:35.164Z,7.10
2018-06-05T00:55:39.432Z,7.00
2018-06-05T00:58:43.698Z,6.83
2018-06-05T01:01:48.037Z,7.80
2018-06-05T01:04:52.298Z,6.97
2018-06-05T01:07:56.585Z,7.27
2018-06-05T01:11:00.858Z,6.57
2018-06-05T01:14:05.231Z,6.53
2018-06-05T01:17:09.534Z,6.43
2018-06-05T01:20:13.866Z,6.63
2018-06-05T01:23:17.896Z,6.67
2018-06-05T01:26:22.193Z,6.37
2018-06-05T01:29:26.435Z,6.40
2018-06-05T01:32:30.683Z,7.83
2018-06-05T01:35:35.034Z,5.90
2018-06-05T01:38:39.329Z,6.67
2018-06-05T01:41:43.574Z,5.43
2018-06-05T01:44:47.886Z,5.83
2018-06-05T01:47:52.097Z,6.53
2018-06-05T01:50:56.381Z,5.73
2018-06-05T01:54:00.596Z,5.63
2018-06-05T01:57:04.977Z,5.63
2018-06-05T02:00:09.264Z,6.07
2018-06-05T02:03:14.299Z,6.03
2018-06-05T02:06:18.643Z,6.53
2018-06-05T02:09:22.955Z,5.70
2018-06-05T02:12:27.289Z,4.47
2018-06-05T02:15:31.593Z,5.37
2018-06-05T02:18:36.014Z,5.50
2018-06-05T02:21:40.343Z,5.87
2018-06-05T02:24:44.672Z,5.10
2018-06-05T02:27:48.976Z,5.53
2018-06-05T02:30:53.345Z,5.67
2018-06-05T02:33:57.731Z,3.87
2018-06-05T02:37:02.039Z,5.07
2018-06-05T02:40:06.305Z,5.20
2018-06-05T02:43:10.585Z,4.67
2018-06-05T02:46:14.834Z,5.53
2018-06-05T02:49:19.109Z,5.53
2018-06-05T02:52:23.437Z,5.43
2018-06-05T02:55:27.761Z,5.70
2018-06-05T02:58:32.073Z,5.83
2018-06-05T03:01:36.345Z,6.03
2018-06-05T03:04:40.713Z,5.93
2018-06-05T03:07:45.025Z,4.90
2018-06-05T03:10:49.275Z,5.17
2018-06-05T03:13:53.665Z,5.03
2018-06-05T03:16:57.936Z,5.13
2018-06-05T03:20:02.200Z,5.20
2018-06-05T03:23:06.724Z,4.83
2018-06-05T03:26:11.034Z,4.37
2018-06-05T03:29:15.327Z,4.50
2018-06-05T03:32:19.563Z,5.70
2018-06-05T03:35:23.902Z,5.27
2018-06-05T03:38:28.185Z,4.17
2018-06-05T03:41:32.465Z,4.37
2018-06-05T03:44:36.863Z,4.43
2018-06-05T03:47:41.181Z,5.17
2018-06-05T03:50:45.505Z,4.20
2018-06-05T03:53:49.763Z,4.73
2018-06-05T03:56:54.033Z,4.97
2018-06-05T03:59:58.358Z,4.10
2018-06-05T04:03:02.400Z,4.63
2018-06-05T04:49:03.491Z,4.63
2018-06-05T04:52:07.749Z,4.90
2018-06-05T04:55:12.019Z,4.20
2018-06-05T04:58:16.297Z,4.57
2018-06-05T05:01:20.603Z,6.03
2018-06-05T05:04:24.836Z,4.33
2018-06-05T05:07:29.166Z,4.73
2018-06-05T05:10:33.448Z,4.93
2018-06-05T05:13:37.752Z,4.70
2018-06-05T05:16:42.028Z,4.87
2018-06-05T05:19:46.322Z,5.63
2018-06-05T05:22:50.620Z,5.40
2018-06-05T05:25:54.957Z,4.60
2018-06-05T05:28:59.253Z,3.87
2018-06-05T05:32:03.572Z,4.00
2018-06-05T05:35:08.375Z,4.60
2018-06-05T05:38:14.197Z,4.73
2018-06-05T05:41:18.792Z,5.33
2018-06-05T05:44:23.113Z,4.30
2018-06-05T05:47:27.436Z,5.03
2018-06-05T05:50:31.744Z,4.67
2018-06-05T05:53:36.175Z,4.50
2018-06-05T05:56:40.485Z,4.53
2018-06-05T05:59:44.829Z,5.17
2018-06-05T06:02:49.132Z,4.33
2018-06-05T06:05:53.431Z,3.93
2018-06-05T06:08:57.764Z,4.57
2018-06-05T06:12:02.092Z,4.53
2018-06-05T06:15:06.407Z,5.40
2018-06-05T06:18:10.731Z,4.63
2018-06-05T06:21:14.997Z,4.97
2018-06-05T06:24:19.854Z,4.30
2018-06-05T06:27:24.119Z,5.13
2018-06-05T06:30:28.423Z,4.90
2018-06-05T06:33:32.577Z,5.13
2018-06-05T06:36:36.852Z,5.00
2018-06-05T06:39:41.121Z,5.00
2018-06-05T06:42:45.382Z,5.20
2018-06-05T06:45:49.726Z,5.77
2018-06-05T06:48:53.876Z,4.97
2018-06-05T06:51:58.175Z,5.07
2018-06-05T06:55:02.458Z,5.17
2018-06-05T06:58:06.779Z,4.43
2018-06-05T07:01:11.056Z,5.13
2018-06-05T07:04:15.337Z,4.50
2018-06-05T07:07:19.594Z,4.77
2018-06-05T07:10:23.931Z,5.23
2018-06-05T07:13:28.212Z,5.27
2018-06-05T07:16:32.508Z,4.87
2018-06-05T07:19:36.761Z,4.73
2018-06-05T07:22:41.050Z,4.73
2018-06-05T07:25:45.359Z,5.17
2018-06-05T07:28:49.633Z,5.07
2018-06-05T07:31:53.916Z,5.10
2018-06-05T07:34:57.944Z,5.00
2018-06-05T07:38:02.230Z,4.87
2018-06-05T07:41:06.544Z,5.10
2018-06-05T07:44:10.795Z,5.60
2018-06-05T07:47:15.186Z,5.13
2018-06-05T07:50:19.982Z,4.90
2018-06-05T07:53:24.323Z,5.00
2018-06-05T07:56:28.651Z,5.43
2018-06-05T07:59:32.986Z,5.27
2018-06-05T08:02:37.342Z,5.17
2018-06-05T08:05:41.635Z,4.37
2018-06-05T08:08:45.941Z,4.87
2018-06-05T08:11:50.274Z,4.57
2018-06-05T08:14:54.565Z,5.10
2018-06-05T08:17:58.881Z,5.20
2018-06-05T08:21:03.201Z,5.27
2018-06-05T08:24:07.567Z,5.10
2018-06-05T08:27:11.846Z,5.30
2018-06-05T08:30:16.162Z,5.53
2018-06-05T08:33:20.481Z,4.73
2018-06-05T08:36:24.786Z,5.07
2018-06-05T08:39:29.053Z,5.30
2018-06-05T08:42:33.418Z,5.63
2018-06-05T08:45:37.794Z,4.87
2018-06-05T08:48:42.211Z,5.47
2018-06-05T08:51:46.494Z,5.20
2018-06-05T08:54:50.837Z,6.03
2018-06-05T08:57:55.141Z,5.90
2018-06-05T09:00:59.471Z,5.23
2018-06-05T09:04:04.026Z,5.27
2018-06-05T09:07:08.289Z,5.47
2018-06-05T09:10:12.654Z,5.23
2018-06-05T09:13:16.977Z,6.20
2018-06-05T09:16:21.254Z,5.60
2018-06-05T09:19:25.553Z,5.77
2018-06-05T09:22:29.868Z,5.53
2018-06-05T09:25:34.216Z,5.33
2018-06-05T09:28:38.568Z,5.17
2018-06-05T09:31:42.854Z,4.97
2018-06-05T09:34:47.168Z,5.97
2018-06-05T09:37:51.420Z,5.50
2018-06-05T09:40:55.788Z,5.87
2018-06-05T09:44:00.148Z,5.43
2018-06-05T09:47:04.552Z,5.33
2018-06-05T09:50:08.848Z,5.97
2018-06-05T09:53:13.492Z,5.60
2018-06-05T09:56:17.954Z,5.77
2018-06-05T09:59:22.244Z,6.80
2018-06-05T10:02:26.537Z,7.33
2018-06-05T10:05:30.809Z,7.67
2018-06-05T10:08:35.064Z,7.93
2018-06-05T10:11:39.409Z,7.60
2018-06-05T10:14:43.682Z,7.40
2018-06-05T10:17:48.059Z,7.67
2018-06-05T10:20:52.353Z,8.27
2018-06-05T10:23:56.787Z,7.73
2018-06-05T10:27:01.105Z,7.83
2018-06-05T10:30:05.422Z,8.03
2018-06-05T10:33:09.773Z,8.53
2018-06-05T10:36:14.069Z,8.40
2018-06-05T10:39:18.344Z,8.53
2018-06-05T10:42:22.600Z,7.73
2018-06-05T10:45:26.890Z,7.00
2018-06-05T10:48:31.255Z,6.53
2018-06-05T10:51:35.660Z,6.43
2018-06-05T10:54:39.992Z,6.73
2018-06-05T10:57:44.292Z,5.77
2018-06-05T11:00:48.646Z,5.87
2018-06-05T11:03:52.936Z,6.03
2018-06-05T11:06:57.238Z,6.50
2018-06-05T11:10:01.536Z,7.53
2018-06-05T11:13:05.935Z,6.77
2018-06-05T11:16:10.322Z,7.17
2018-06-05T11:19:14.673Z,5.97
2018-06-05T11:22:19.161Z,5.77
2018-06-05T11:25:23.501Z,5.80
2018-06-05T11:28:27.787Z,5.07
2018-06-05T11:31:31.907Z,5.37
2018-06-05T11:34:36.161Z,3.93
2018-06-05T11:37:40.457Z,4.97
2018-06-05T11:40:44.790Z,5.07
2018-06-05T11:43:49.088Z,4.87
2018-06-05T11:46:53.477Z,4.53
2018-06-05T11:49:57.720Z,4.80
2018-06-05T11:53:02.066Z,4.37
2018-06-05T11:56:06.411Z,4.40
2018-06-05T11:59:10.870Z,3.57
2018-06-05T12:02:15.422Z,3.73
2018-06-05T12:05:20.047Z,4.37
2018-06-05T12:08:24.397Z,4.10
2018-06-05T12:11:28.685Z,4.37
2018-06-05T12:14:33.036Z,4.23
2018-06-05T12:17:37.297Z,4.30
2018-06-05T12:20:41.644Z,4.23
2018-06-05T12:23:45.960Z,4.43
2018-06-05T12:26:50.297Z,4.20
2018-06-05T12:29:54.604Z,4.20
2018-06-05T12:32:58.928Z,4.70
2018-06-05T12:36:03.183Z,4.23
2018-06-05T12:39:09.254Z,4.67
2018-06-05T12:42:13.582Z,4.80
2018-06-05T12:45:17.975Z,4.67
2018-06-05T12:48:22.267Z,4.60
2018-06-05T12:51:26.704Z,4.50
2018-06-05T12:54:30.985Z,4.83
2018-06-05T12:57:35.319Z,4.37
2018-06-05T13:00:39.473Z,4.03
2018-06-05T13:03:43.832Z,4.10
2018-06-05T13:06:48.169Z,3.90
2018-06-05T13:09:52.419Z,4.27
2018-06-05T13:12:56.800Z,4.43
2018-06-05T13:16:01.122Z,4.80
2018-06-05T13:19:05.433Z,4.40
2018-06-05T13:22:09.764Z,4.00
2018-06-05T13:25:14.028Z,4.53
2018-06-05T13:28:18.303Z,3.93
2018-06-05T13:31:22.802Z,4.00
2018-06-05T13:34:27.241Z,4.63
2018-06-05T13:37:31.643Z,4.50
2018-06-05T13:40:36.110Z,3.77
2018-06-05T13:43:40.226Z,4.63
2018-06-05T13:46:44.510Z,4.17
2018-06-05T13:49:48.807Z,4.37
2018-06-05T13:52:53.166Z,4.30
2018-06-05T13:55:57.454Z,3.70
2018-06-05T13:59:01.797Z,4.50
2018-06-05T14:02:06.137Z,3.80
2018-06-05T14:05:10.440Z,4.00
2018-06-05T14:08:14.757Z,4.00
2018-06-05T14:11:19.357Z,4.00
2018-06-05T14:14:23.707Z,3.57
2018-06-05T14:17:28.118Z,3.70
2018-06-05T14:20:32.451Z,3.90
2018-06-05T14:23:36.728Z,4.70
2018-06-05T14:26:41.106Z,4.10
2018-06-05T14:29:45.497Z,3.70
2018-06-05T14:32:49.841Z,3.97
2018-06-05T14:35:54.023Z,3.43
2018-06-05T14:38:58.325Z,3.60
2018-06-05T14:42:02.713Z,3.60
2018-06-05T14:45:07.058Z,3.60
2018-06-05T14:48:11.446Z,2.97
2018-06-05T14:51:15.762Z,3.17
2018-06-05T14:54:20.058Z,3.27
2018-06-05T14:57:24.374Z,3.00
2018-06-05T15:00:28.703Z,3.27
2018-06-05T15:03:33.005Z,3.10
2018-06-05T15:06:37.345Z,3.17
2018-06-05T15:09:41.645Z,3.20
2018-06-05T15:12:45.965Z,3.60
2018-06-05T15:15:50.294Z,3.30
2018-06-05T15:18:54.596Z,3.30
2018-06-05T15:21:58.956Z,3.00
2018-06-05T15:25:03.255Z,3.27
2018-06-05T15:28:07.574Z,3.27
2018-06-05T15:31:11.837Z,3.13
2018-06-05T15:34:16.098Z,3.33
2018-06-05T15:37:20.403Z,3.30
2018-06-05T15:40:24.765Z,3.23
2018-06-05T15:43:29.061Z,3.60
2018-06-05T15:46:33.382Z,3.60
2018-06-05T15:49:37.445Z,3.73
2018-06-05T15:52:41.736Z,3.40
2018-06-05T15:55:46.044Z,3.73
2018-06-05T15:58:50.349Z,3.33
2018-06-05T16:01:54.668Z,3.40
2018-06-05T16:04:58.961Z,3.63
2018-06-05T16:08:03.314Z,3.30
2018-06-05T16:11:07.620Z,3.17
2018-06-05T16:14:11.971Z,3.80
2018-06-05T16:17:16.273Z,3.00
2018-06-05T16:20:20.735Z,3.07
2018-06-05T16:23:25.012Z,3.53
2018-06-05T16:26:29.337Z,3.00
2018-06-05T16:29:33.678Z,3.30
2018-06-05T16:32:37.964Z,3.20
2018-06-05T16:35:42.256Z,3.37
2018-06-05T16:38:46.582Z,3.00
2018-06-05T16:41:50.956Z,3.27
2018-06-05T16:44:55.350Z,3.13
2018-06-05T16:47:59.675Z,3.10
2018-06-05T16:51:04.008Z,2.80
2018-06-05T16:54:08.294Z,2.80
2018-06-05T16:57:12.832Z,2.97
2018-06-05T17:00:17.141Z,3.00
2018-06-05T17:03:21.485Z,3.93
2018-06-05T17:06:25.887Z,2.90
2018-06-05T17:09:30.194Z,3.10
2018-06-05T17:12:34.545Z,2.77
2018-06-05T17:15:38.874Z,3.30
2018-06-05T17:18:43.117Z,3.30
2018-06-05T17:21:47.511Z,3.23
2018-06-05T17:24:51.797Z,3.10
2018-06-05T17:27:56.115Z,3.47
2018-06-05T17:31:00.419Z,3.10
2018-06-05T17:34:04.472Z,3.40
2018-06-05T17:37:08.740Z,3.27
2018-06-05T17:40:13.123Z,3.00
2018-06-05T17:43:17.636Z,3.27
2018-06-05T17:46:21.938Z,3.70
2018-06-05T17:49:26.231Z,3.23
2018-06-05T17:52:30.598Z,3.10
2018-06-05T17:55:34.888Z,3.30
2018-06-05T17:58:39.227Z,3.03
2018-06-05T18:01:43.625Z,3.23
2018-06-05T18:04:47.971Z,2.93
2018-06-05T18:07:52.291Z,3.37
2018-06-05T18:10:56.585Z,3.17
2018-06-05T18:14:00.895Z,3.10
2018-06-05T18:17:05.148Z,3.20
2018-06-05T18:20:09.441Z,3.27
2018-06-05T18:23:13.702Z,3.23
2018-06-05T18:26:18.069Z,3.40
2018-06-05T18:29:22.277Z,3.43
2018-06-05T18:32:26.774Z,3.20
2018-06-05T18:35:31.147Z,2.93
2018-06-05T18:38:35.487Z,3.17
2018-06-05T18:41:39.911Z,3.10
2018-06-05T18:44:44.213Z,3.30
2018-06-05T18:47:48.564Z,3.13
2018-06-05T18:50:52.973Z,3.10
2018-06-05T18:53:57.380Z,2.73
2018-06-05T18:57:01.658Z,3.40
2018-06-05T19:00:06.839Z,3.83
2018-06-05T19:03:11.140Z,3.73
2018-06-05T19:06:15.465Z,3.43
2018-06-05T19:09:19.844Z,3.60
2018-06-05T19:12:24.104Z,3.20
2018-06-05T19:15:28.442Z,3.73
2018-06-05T19:18:32.753Z,3.93
2018-06-05T19:21:37.048Z,3.60
2018-06-05T19:24:41.324Z,3.30
2018-06-05T19:27:45.722Z,3.10
2018-06-05T19:30:50.050Z,3.10
2018-06-05T19:33:54.429Z,3.67
2018-06-05T19:36:59.758Z,3.30
2018-06-05T19:40:04.106Z,3.50
2018-06-05T19:43:08.470Z,3.13
2018-06-05T19:46:12.721Z,3.10
2018-06-05T19:49:17.066Z,2.83
2018-06-05T19:52:21.371Z,3.30
2018-06-05T19:55:25.717Z,3.00
2018-06-05T19:58:29.990Z,3.10
2018-06-05T20:01:34.343Z,3.13
2018-06-05T20:04:38.687Z,2.97
2018-06-05T20:07:42.987Z,2.67
2018-06-05T20:10:47.276Z,2.80
2018-06-05T20:13:52.394Z,2.90
2018-06-05T20:16:57.363Z,2.67
2018-06-05T20:20:02.541Z,2.73
2018-06-05T20:23:07.595Z,3.07
2018-06-05T20:26:12.906Z,2.90
2018-06-05T20:29:17.771Z,2.83
2018-06-05T20:32:22.977Z,2.70
2018-06-05T20:35:27.789Z,2.80
2018-06-05T20:38:32.396Z,2.97
2018-06-05T20:41:36.965Z,3.00
2018-06-05T20:44:41.546Z,3.10
2018-06-05T20:47:47.081Z,2.60
2018-06-05T20:50:52.293Z,2.97
2018-06-05T20:53:57.721Z,3.00
2018-06-05T20:57:03.222Z,2.40
2018-06-05T21:00:07.566Z,3.07
2018-06-05T21:03:11.905Z,2.50
2018-06-05T21:06:16.395Z,2.80
2018-06-05T21:09:20.675Z,3.00
2018-06-05T21:12:27.164Z,2.90
2018-06-05T21:15:32.408Z,2.80
2018-06-05T21:22:06.763Z,3.00
2018-06-05T21:25:24.219Z,3.40
2018-06-05T21:28:39.570Z,2.93
2018-06-05T21:35:42.203Z,3.20
2018-06-05T21:39:16.234Z,3.33
2018-06-05T21:42:48.964Z,2.97
2018-06-05T21:46:02.104Z,3.53
2018-06-05T21:49:06.388Z,3.27
2018-06-05T21:52:10.745Z,2.83
2018-06-05T21:55:15.027Z,3.03
2018-06-05T21:58:19.364Z,3.40
2018-06-05T22:01:23.686Z,3.10
2018-06-05T22:04:28.138Z,2.87
2018-06-05T22:07:32.424Z,2.63
2018-06-05T22:10:36.754Z,2.30
2018-06-05T22:13:41.076Z,2.37
2018-06-05T22:16:45.361Z,2.00
2018-06-05T22:19:49.739Z,2.10
2018-06-05T22:22:54.027Z,2.33
2018-06-05T22:25:58.377Z,2.30
2018-06-05T22:29:02.639Z,2.10
2018-06-05T22:32:06.997Z,1.77
2018-06-05T22:35:11.276Z,2.07
2018-06-05T22:38:15.629Z,1.90
2018-06-05T22:41:19.950Z,2.17
2018-06-05T22:44:24.259Z,2.13
2018-06-05T22:47:28.603Z,2.20
2018-06-05T22:50:32.668Z,2.40
2018-06-05T22:53:36.985Z,2.63
2018-06-05T22:56:41.359Z,3.30
2018-06-05T22:59:45.771Z,2.63
2018-06-05T23:02:50.072Z,2.70
2018-06-05T23:05:54.425Z,2.27
2018-06-05T23:08:58.727Z,2.10
2018-06-05T23:12:03.031Z,2.50
2018-06-05T23:15:07.358Z,1.93
2018-06-05T23:18:11.686Z,2.20
2018-06-05T23:21:15.993Z,2.00
2018-06-05T23:24:20.385Z,2.10
2018-06-05T23:27:24.730Z,2.37
2018-06-05T23:30:28.779Z,2.30
2018-06-05T23:33:33.048Z,2.10
2018-06-05T23:36:37.395Z,2.40
2018-06-05T23:39:41.813Z,1.90
2018-06-05T23:42:46.088Z,1.83
2018-06-05T23:45:50.354Z,1.70
2018-06-05T23:48:54.655Z,2.10
2018-06-05T23:51:59.012Z,1.80
2018-06-05T23:55:03.307Z,1.97
2018-06-05T23:58:07.607Z,2.33
